Time;durP1;ratioP1;P1;durP2;ratioP2;P2;SDS_P1;SDS_P2;PMS_P1;PMS_P2;Temp;Humidity;BMP_temperature;BMP_pressure;BME280_temperature;BME280_humidity;BME280_pressure;Samples;Min_cycle;Max_cycle;Signal;HPM_P1;HPM_P2
2022/01/20 00:01:41;;;;;;;7.57;3.40;;;4.40;99.90;;;;;;5076011;28;20533;-71
2022/01/20 00:04:16;;;;;;;10.37;3.13;;;4.40;99.90;;;;;;5076111;28;20474;-68
2022/01/20 00:09:48;;;;;;;8.30;2.67;;;4.40;99.90;;;;;;5076696;28;20906;-70
2022/01/20 00:23:30;;;;;;;9.83;2.70;;;4.30;99.90;;;;;;5077968;28;20724;-70
2022/01/20 00:26:03;;;;;;;9.83;2.67;;;4.30;99.90;;;;;;5077777;28;20652;-70
2022/01/20 00:28:41;;;;;;;10.33;2.37;;;4.30;99.90;;;;;;5077607;28;20489;-70
2022/01/20 00:31:25;;;;;;;12.47;2.53;;;4.30;99.90;;;;;;5078182;28;20434;-70
2022/01/20 00:33:58;;;;;;;13.77;3.43;;;4.30;99.90;;;;;;5077874;28;20575;-69
2022/01/20 00:39:08;;;;;;;10.47;3.27;;;4.30;99.90;;;;;;5078491;28;20768;-70
2022/01/20 00:41:36;;;;;;;13.00;3.90;;;4.40;99.90;;;;;;5078489;28;20915;-69
2022/01/20 00:44:03;;;;;;;17.43;3.10;;;4.40;99.90;;;;;;5079402;28;20457;-70
2022/01/20 00:46:30;;;;;;;11.20;3.60;;;4.40;99.90;;;;;;5078835;28;20454;-71
2022/01/20 00:48:57;;;;;;;14.60;3.50;;;4.40;99.90;;;;;;5079097;28;20490;-71
2022/01/20 00:51:24;;;;;;;12.37;3.10;;;4.50;99.90;;;;;;5079516;28;20458;-70
2022/01/20 00:53:51;;;;;;;7.63;2.87;;;4.50;99.90;;;;;;5079604;28;20931;-70
2022/01/20 00:56:18;;;;;;;20.30;3.50;;;4.50;99.90;;;;;;5078321;28;20458;-71
2022/01/20 00:58:46;;;;;;;10.40;2.30;;;4.50;99.90;;;;;;5079093;28;20450;-69
2022/01/20 01:01:13;;;;;;;6.93;3.07;;;4.50;99.90;;;;;;5079190;28;20497;-70
2022/01/20 01:03:40;;;;;;;13.73;3.47;;;4.50;99.90;;;;;;5078599;28;20468;-70
2022/01/20 01:06:17;;;;;;;13.67;4.23;;;4.40;99.90;;;;;;5079307;28;20465;-71
2022/01/20 01:08:44;;;;;;;7.60;2.67;;;4.40;99.90;;;;;;5078026;28;20442;-68
2022/01/20 01:11:12;;;;;;;11.37;2.90;;;4.40;99.90;;;;;;5078688;28;20450;-70
2022/01/20 01:13:39;;;;;;;9.13;3.10;;;4.40;99.90;;;;;;5078339;28;20531;-70
2022/01/20 01:16:10;;;;;;;18.63;2.90;;;4.30;99.90;;;;;;5077597;28;20918;-69
2022/01/20 01:21:29;;;;;;;6.83;2.50;;;4.30;99.90;;;;;;5078318;28;20468;-70
2022/01/20 01:23:56;;;;;;;14.30;3.10;;;4.20;99.90;;;;;;5077718;28;20442;-70
2022/01/20 01:26:26;;;;;;;7.07;2.37;;;4.20;99.90;;;;;;5077412;28;20562;-70
2022/01/20 01:28:56;;;;;;;8.80;2.87;;;4.20;99.90;;;;;;5077100;28;20438;-70
2022/01/20 01:31:34;;;;;;;9.77;2.77;;;4.20;99.90;;;;;;5078241;28;20549;-70
2022/01/20 01:34:04;;;;;;;14.87;4.00;;;4.10;99.90;;;;;;5080228;28;20450;-70
2022/01/20 01:36:45;;;;;;;16.80;3.17;;;4.10;99.90;;;;;;5081145;28;20442;-70
2022/01/20 01:39:12;;;;;;;6.33;1.93;;;4.10;99.90;;;;;;5079740;28;20909;-70
2022/01/20 01:41:40;;;;;;;12.23;3.33;;;4.00;99.90;;;;;;5079894;28;20497;-69
2022/01/20 01:44:09;;;;;;;11.83;2.83;;;4.00;99.90;;;;;;5079910;28;20545;-70
2022/01/20 01:46:39;;;;;;;10.73;2.63;;;4.00;99.90;;;;;;5079583;28;20458;-69
2022/01/20 01:49:07;;;;;;;13.97;2.53;;;4.00;99.90;;;;;;5079969;28;20482;-69
2022/01/20 01:51:34;;;;;;;12.20;2.80;;;4.00;99.90;;;;;;5079990;28;20463;-70
2022/01/20 01:54:01;;;;;;;11.03;2.40;;;4.00;99.90;;;;;;5081749;28;20462;-70
2022/01/20 01:56:27;;;;;;;15.53;3.10;;;3.90;99.90;;;;;;5080895;28;20776;-69
2022/01/20 01:58:55;;;;;;;13.67;2.87;;;3.90;99.90;;;;;;5081034;28;20469;-71
2022/01/20 02:01:21;;;;;;;17.70;3.10;;;3.90;99.90;;;;;;5081900;28;20474;-69
2022/01/20 02:03:58;;;;;;;13.93;3.43;;;3.90;99.90;;;;;;5080346;28;20464;-68
2022/01/20 02:06:49;;;;;;;10.50;2.97;;;3.90;99.90;;;;;;5081248;28;20477;-70
2022/01/20 02:09:30;;;;;;;13.23;2.60;;;3.80;99.90;;;;;;5078927;28;20953;-70
2022/01/20 02:20:14;;;;;;;7.43;2.20;;;3.80;99.90;;;;;;5078797;28;20465;-70
2022/01/20 02:22:41;;;;;;;13.20;2.27;;;3.70;99.90;;;;;;5079168;28;20529;-70
2022/01/20 02:25:18;;;;;;;12.07;3.00;;;3.70;99.90;;;;;;5079651;28;20573;-71
2022/01/20 02:27:45;;;;;;;14.13;3.20;;;3.70;99.90;;;;;;5079860;28;20822;-71
2022/01/20 02:30:14;;;;;;;12.90;2.70;;;3.70;99.90;;;;;;5079289;28;20554;-71
2022/01/20 02:32:41;;;;;;;7.70;2.40;;;3.70;99.90;;;;;;5079642;28;20813;-70
2022/01/20 02:35:11;;;;;;;12.57;2.63;;;3.70;99.90;;;;;;5079466;28;20454;-71
2022/01/20 02:37:39;;;;;;;13.07;2.13;;;3.70;99.90;;;;;;5079344;28;20454;-71
2022/01/20 02:40:31;;;;;;;12.03;2.53;;;3.60;99.90;;;;;;5078826;28;20489;-71
2022/01/20 02:45:42;;;;;;;11.40;3.77;;;3.60;99.90;;;;;;5078734;28;20742;-70
2022/01/20 02:48:09;;;;;;;11.33;2.90;;;3.60;99.90;;;;;;5078129;28;20485;-71
2022/01/20 02:50:37;;;;;;;6.03;2.80;;;3.50;99.90;;;;;;5078433;28;20750;-71
2022/01/20 02:53:03;;;;;;;11.53;2.50;;;3.60;99.90;;;;;;5078614;28;20466;-71
2022/01/20 02:55:30;;;;;;;10.93;3.07;;;3.50;99.90;;;;;;5078934;28;20741;-71
2022/01/20 02:57:57;;;;;;;7.53;2.37;;;3.50;99.90;;;;;;5078164;28;20455;-71
2022/01/20 03:00:24;;;;;;;7.70;2.10;;;3.50;99.90;;;;;;5078563;28;20543;-71
2022/01/20 03:02:50;;;;;;;5.57;1.30;;;3.50;99.90;;;;;;5079428;28;20945;-71
2022/01/20 03:05:17;;;;;;;12.20;2.50;;;3.50;99.90;;;;;;5078265;28;20458;-71
2022/01/20 03:07:46;;;;;;;12.67;2.80;;;3.50;99.90;;;;;;5079122;28;20989;-70
2022/01/20 03:10:13;;;;;;;15.60;3.57;;;3.50;99.90;;;;;;5078833;28;20821;-70
2022/01/20 03:12:40;;;;;;;7.27;2.10;;;3.40;99.90;;;;;;5078587;28;20454;-70
2022/01/20 03:15:07;;;;;;;9.50;3.30;;;3.40;99.90;;;;;;5077653;28;20945;-70
2022/01/20 03:17:34;;;;;;;9.90;2.87;;;3.40;99.90;;;;;;5078345;28;20824;-71
2022/01/20 03:20:01;;;;;;;7.57;2.83;;;3.40;99.90;;;;;;5077279;28;20490;-70
2022/01/20 03:22:28;;;;;;;8.80;2.23;;;3.40;99.90;;;;;;5077953;28;20927;-70
2022/01/20 03:24:57;;;;;;;10.30;2.97;;;3.40;99.90;;;;;;5078581;28;20465;-71
2022/01/20 03:27:24;;;;;;;10.77;2.73;;;3.40;99.90;;;;;;5077630;28;20851;-72
2022/01/20 03:29:51;;;;;;;8.30;2.50;;;3.40;99.90;;;;;;5077354;28;20527;-71
2022/01/20 03:32:17;;;;;;;14.70;2.40;;;3.40;99.90;;;;;;5077891;28;20455;-70
2022/01/20 03:34:44;;;;;;;9.67;3.33;;;3.40;99.90;;;;;;5076063;28;20455;-71
2022/01/20 03:37:11;;;;;;;10.20;2.13;;;3.00;99.90;;;;;;5075637;28;20466;-72
2022/01/20 03:39:38;;;;;;;11.97;2.80;;;2.70;1.00;;;;;;5075889;28;20923;-70
2022/01/20 03:42:07;;;;;;;13.93;2.20;;;2.50;27.30;;;;;;5075479;28;20482;-70
2022/01/20 03:44:34;;;;;;;13.47;3.00;;;2.40;99.90;;;;;;5075403;28;20825;-70
2022/01/20 03:47:03;;;;;;;8.57;2.70;;;2.40;99.90;;;;;;5075627;28;20489;-71
2022/01/20 03:49:36;;;;;;;19.00;3.90;;;2.40;99.90;;;;;;5075128;28;20880;-71
2022/01/20 03:52:04;;;;;;;17.37;2.80;;;2.40;99.90;;;;;;5075782;28;20464;-70
2022/01/20 03:54:31;;;;;;;10.77;3.30;;;2.40;99.90;;;;;;5074858;28;20469;-70
2022/01/20 03:56:58;;;;;;;10.60;2.80;;;2.50;99.90;;;;;;5075682;28;20454;-70
2022/01/20 03:59:26;;;;;;;9.93;2.47;;;2.50;99.90;;;;;;5075851;28;20458;-70
2022/01/20 04:01:53;;;;;;;6.63;2.80;;;2.60;99.90;;;;;;5076590;28;20474;-70
2022/01/20 04:04:20;;;;;;;14.60;3.10;;;2.60;99.90;;;;;;5076832;28;20458;-71
2022/01/20 04:06:47;;;;;;;11.87;2.70;;;2.70;99.90;;;;;;5075290;28;20780;-70
2022/01/20 04:09:14;;;;;;;10.93;2.57;;;2.80;99.90;;;;;;5076642;28;20899;-70
2022/01/20 04:11:41;;;;;;;14.47;4.33;;;2.90;99.90;;;;;;5075704;28;20462;-70
2022/01/20 04:14:08;;;;;;;9.60;2.53;;;2.90;99.90;;;;;;5075671;28;20912;-70
2022/01/20 04:16:50;;;;;;;14.17;2.50;;;3.00;99.90;;;;;;5075373;28;20892;-70
2022/01/20 04:19:17;;;;;;;13.60;3.17;;;3.00;99.90;;;;;;5075967;28;20453;-70
2022/01/20 04:21:45;;;;;;;21.80;3.77;;;3.00;99.90;;;;;;5076334;28;20987;-70
2022/01/20 04:24:12;;;;;;;5.50;2.10;;;3.00;99.90;;;;;;5075077;28;20837;-70
2022/01/20 04:26:41;;;;;;;7.90;2.50;;;2.90;99.90;;;;;;5074970;28;20468;-70
2022/01/20 04:29:09;;;;;;;10.50;1.93;;;2.50;99.90;;;;;;5074562;28;20458;-70
2022/01/20 04:31:37;;;;;;;7.30;1.80;;;2.10;99.90;;;;;;5075265;28;20462;-69
2022/01/20 04:34:05;;;;;;;7.13;1.90;;;1.80;99.90;;;;;;5074942;28;20508;-70
2022/01/20 04:36:36;;;;;;;8.13;2.20;;;1.70;99.90;;;;;;5074519;28;20458;-69
2022/01/20 04:39:06;;;;;;;6.83;1.87;;;1.50;99.90;;;;;;5074826;28;20503;-70
2022/01/20 04:41:33;;;;;;;6.20;1.43;;;1.30;99.90;;;;;;5074338;28;20572;-70
2022/01/20 04:44:00;;;;;;;10.93;2.07;;;1.20;99.90;;;;;;5074533;28;20454;-71
2022/01/20 04:46:37;;;;;;;9.57;2.33;;;1.10;99.90;;;;;;5074394;28;20790;-70
2022/01/20 04:57:01;;;;;;;2.43;1.30;;;1.10;99.90;;;;;;5073614;28;20534;-69
2022/01/20 04:57:22;;;;;;;8.60;1.90;;;1.00;99.90;;;;;;5074405;28;20438;-70
2022/01/20 04:59:51;;;;;;;6.37;1.57;;;1.00;99.90;;;;;;5074909;28;20442;-72
2022/01/20 05:02:23;;;;;;;15.37;2.33;;;1.00;99.90;;;;;;5074844;28;21039;-69
2022/01/20 05:04:55;;;;;;;8.23;2.23;;;1.00;99.90;;;;;;5081081;28;20453;-70
2022/01/20 05:07:25;;;;;;;3.10;1.30;;;1.10;99.90;;;;;;5080483;28;20438;-70
2022/01/20 05:09:54;;;;;;;12.83;2.23;;;1.10;99.90;;;;;;5078962;28;20541;-70
2022/01/20 05:12:27;;;;;;;5.20;1.63;;;1.20;99.90;;;;;;5078270;28;20462;-70
2022/01/20 05:14:54;;;;;;;8.93;2.60;;;1.20;99.90;;;;;;5078577;28;20824;-70
2022/01/20 05:17:22;;;;;;;6.73;1.80;;;1.20;99.90;;;;;;5078152;28;20804;-69
2022/01/20 05:19:49;;;;;;;4.90;1.43;;;1.30;99.90;;;;;;5077965;28;20487;-71
2022/01/20 05:22:17;;;;;;;3.40;1.40;;;1.40;99.90;;;;;;5077944;28;20513;-71
2022/01/20 05:24:44;;;;;;;7.33;2.10;;;1.40;99.90;;;;;;5077689;28;20454;-71
2022/01/20 05:27:10;;;;;;;8.17;2.33;;;1.40;99.90;;;;;;5077659;28;20454;-70
2022/01/20 05:29:37;;;;;;;9.37;2.60;;;1.50;99.90;;;;;;5078116;28;20484;-70
2022/01/20 05:32:05;;;;;;;3.70;1.50;;;1.50;99.90;;;;;;5077649;28;20548;-70
2022/01/20 05:34:31;;;;;;;5.30;1.60;;;1.50;99.90;;;;;;5077773;28;20476;-70
2022/01/20 05:36:58;;;;;;;4.63;2.13;;;1.50;99.90;;;;;;5077544;28;20461;-76
2022/01/20 05:39:26;;;;;;;8.03;2.20;;;1.50;99.90;;;;;;5077476;28;20465;-70
2022/01/20 05:41:53;;;;;;;7.00;1.80;;;1.60;99.90;;;;;;5077647;28;20490;-70
2022/01/20 05:44:20;;;;;;;5.87;2.20;;;1.60;99.90;;;;;;5077794;28;20465;-70
2022/01/20 05:46:49;;;;;;;5.43;1.70;;;1.60;99.90;;;;;;5077646;28;20454;-70
2022/01/20 05:49:21;;;;;;;10.27;2.27;;;1.60;99.90;;;;;;5077127;28;20551;-70
2022/01/20 05:51:48;;;;;;;4.70;1.97;;;1.60;99.90;;;;;;5078362;28;20492;-70
2022/01/20 05:54:16;;;;;;;3.73;1.60;;;1.60;99.90;;;;;;5078095;28;20454;-70
2022/01/20 05:56:44;;;;;;;6.63;1.90;;;1.70;99.90;;;;;;5078620;28;20548;-70
2022/01/20 05:59:14;;;;;;;16.40;2.37;;;1.70;99.90;;;;;;5082240;28;20458;-70
2022/01/20 06:01:41;;;;;;;7.17;2.30;;;1.70;99.90;;;;;;5083686;28;20946;-70
2022/01/20 06:04:09;;;;;;;10.70;2.10;;;1.80;99.90;;;;;;5080989;28;20458;-70
2022/01/20 06:06:36;;;;;;;6.07;1.77;;;1.80;99.90;;;;;;5079668;28;20545;-70
2022/01/20 06:09:04;;;;;;;8.73;2.07;;;1.90;99.90;;;;;;5079629;28;20794;-70
2022/01/20 06:11:31;;;;;;;6.20;2.20;;;1.80;99.90;;;;;;5078110;28;20454;-71
2022/01/20 06:13:59;;;;;;;8.53;2.13;;;1.90;99.90;;;;;;5077881;28;20515;-70
2022/01/20 06:16:26;;;;;;;6.90;2.00;;;1.90;99.90;;;;;;5076351;28;20454;-71
2022/01/20 06:18:52;;;;;;;8.70;2.27;;;2.00;99.90;;;;;;5077399;28;20465;-70
2022/01/20 06:21:19;;;;;;;6.63;1.73;;;1.90;99.90;;;;;;5077323;28;20814;-70
2022/01/20 06:23:46;;;;;;;7.60;2.60;;;1.80;99.90;;;;;;5077022;28;20458;-70
2022/01/20 06:26:13;;;;;;;9.33;2.00;;;1.70;99.90;;;;;;5077176;28;20458;-70
2022/01/20 06:28:41;;;;;;;9.80;2.30;;;1.70;99.90;;;;;;5077083;28;20454;-70
2022/01/20 06:31:09;;;;;;;5.27;1.80;;;1.60;99.90;;;;;;5077212;28;20450;-70
2022/01/20 06:33:37;;;;;;;3.10;1.70;;;1.60;99.90;;;;;;5077263;28;20826;-70
2022/01/20 06:36:07;;;;;;;2.70;1.90;;;1.60;99.90;;;;;;5078175;28;20527;-70
2022/01/20 06:38:33;;;;;;;4.47;1.97;;;1.60;99.90;;;;;;5077335;28;20470;-70
2022/01/20 06:41:00;;;;;;;4.97;2.00;;;1.70;99.90;;;;;;5077461;28;20891;-71
2022/01/20 06:43:28;;;;;;;2.73;1.57;;;1.60;99.90;;;;;;5077974;28;20798;-70
2022/01/20 06:45:54;;;;;;;4.13;1.93;;;1.60;99.90;;;;;;5076773;28;20457;-70
2022/01/20 06:48:23;;;;;;;3.30;1.60;;;1.60;99.90;;;;;;5078240;28;20498;-70
2022/01/20 06:50:50;;;;;;;6.73;2.00;;;1.60;99.90;;;;;;5078418;28;20438;-71
2022/01/20 06:53:17;;;;;;;6.87;2.00;;;1.60;99.90;;;;;;5077554;28;20523;-70
2022/01/20 06:55:44;;;;;;;8.17;1.80;;;1.60;99.90;;;;;;5078138;28;20915;-70
2022/01/20 06:58:10;;;;;;;3.10;1.77;;;1.60;99.90;;;;;;5077394;28;20473;-70
2022/01/20 07:00:37;;;;;;;5.40;2.27;;;1.50;99.90;;;;;;5078070;28;20462;-71
2022/01/20 07:03:07;;;;;;;5.10;1.80;;;1.60;99.90;;;;;;5079152;28;20481;-70
2022/01/20 07:05:35;;;;;;;2.80;1.63;;;1.60;99.90;;;;;;5080115;28;20465;-70
2022/01/20 07:08:02;;;;;;;4.23;1.57;;;1.60;99.90;;;;;;5080674;28;20919;-70
2022/01/20 07:10:28;;;;;;;4.27;1.43;;;1.40;99.90;;;;;;5081413;28;20458;-71
2022/01/20 07:12:59;;;;;;;10.37;2.07;;;1.30;99.90;;;;;;5080958;28;20450;-70
2022/01/20 07:15:25;;;;;;;4.40;1.30;;;1.10;99.90;;;;;;5079154;28;20464;-70
2022/01/20 07:17:52;;;;;;;7.20;1.43;;;0.90;99.90;;;;;;5078579;28;20458;-71
2022/01/20 07:20:19;;;;;;;3.03;1.20;;;0.80;99.90;;;;;;5078315;28;20454;-71
2022/01/20 07:22:47;;;;;;;4.60;2.00;;;0.70;99.90;;;;;;5079232;28;20486;-70
2022/01/20 07:25:14;;;;;;;4.40;1.40;;;0.70;99.90;;;;;;5079434;28;20511;-70
2022/01/20 07:27:41;;;;;;;2.63;1.63;;;0.60;99.90;;;;;;5077959;28;20535;-72
2022/01/20 07:30:09;;;;;;;7.63;1.67;;;0.60;99.90;;;;;;5079117;28;20567;-71
2022/01/20 07:32:36;;;;;;;5.10;2.67;;;0.60;99.90;;;;;;5078214;28;20454;-71
2022/01/20 07:35:03;;;;;;;3.63;1.50;;;0.60;99.90;;;;;;5078759;28;20454;-72
2022/01/20 07:37:29;;;;;;;11.13;2.13;;;0.60;99.90;;;;;;5079334;28;20454;-71
2022/01/20 07:39:57;;;;;;;2.90;1.00;;;0.60;99.90;;;;;;5078201;28;20470;-71
2022/01/20 07:42:24;;;;;;;5.40;1.63;;;0.60;99.90;;;;;;5077589;28;20509;-71
2022/01/20 07:44:51;;;;;;;7.00;1.63;;;0.60;99.90;;;;;;5076455;28;20459;-71
2022/01/20 07:47:17;;;;;;;12.93;2.13;;;0.60;99.90;;;;;;5076347;28;20567;-71
2022/01/20 07:49:46;;;;;;;3.47;1.90;;;0.70;99.90;;;;;;5078074;28;20772;-71
2022/01/20 07:52:14;;;;;;;3.33;1.67;;;0.70;99.90;;;;;;5076714;28;20938;-71
2022/01/20 07:54:40;;;;;;;4.60;1.70;;;0.80;99.90;;;;;;5077152;28;20512;-71
2022/01/20 07:57:13;;;;;;;10.33;2.10;;;0.80;99.90;;;;;;5077040;28;20782;-71
2022/01/20 07:59:45;;;;;;;9.17;2.20;;;0.90;99.90;;;;;;5078408;28;20462;-72
2022/01/20 08:02:16;;;;;;;4.40;1.60;;;0.90;99.90;;;;;;5079217;28;20756;-72
2022/01/20 08:04:43;;;;;;;7.87;1.70;;;1.00;99.90;;;;;;5077709;28;20461;-71
2022/01/20 08:07:13;;;;;;;9.50;3.07;;;1.00;99.90;;;;;;5076888;28;20477;-72
2022/01/20 08:09:56;;;;;;;3.67;1.50;;;1.10;99.90;;;;;;5078018;28;20455;-71
2022/01/20 08:12:31;;;;;;;4.87;1.70;;;1.20;99.90;;;;;;5078841;28;20443;-71
2022/01/20 08:15:03;;;;;;;4.70;2.10;;;1.30;99.90;;;;;;5077258;28;20453;-72
2022/01/20 08:17:30;;;;;;;9.97;2.70;;;1.30;99.90;;;;;;5078656;28;20439;-72
2022/01/20 08:19:58;;;;;;;6.80;1.90;;;1.40;99.90;;;;;;5081790;28;20454;-70
2022/01/20 08:22:25;;;;;;;7.90;2.00;;;1.50;99.90;;;;;;5080946;28;20501;-71
2022/01/20 08:24:52;;;;;;;5.40;2.30;;;1.50;99.90;;;;;;5081885;28;20461;-71
2022/01/20 08:27:22;;;;;;;4.47;1.93;;;1.60;99.90;;;;;;5081394;28;20493;-70
2022/01/20 08:29:50;;;;;;;7.70;2.93;;;1.60;99.90;;;;;;5079333;28;20488;-70
2022/01/20 08:32:19;;;;;;;6.80;2.50;;;1.70;99.90;;;;;;5081892;28;20519;-71
2022/01/20 08:34:51;;;;;;;11.33;2.50;;;1.70;99.90;;;;;;5075579;28;20915;-72
2022/01/20 08:37:18;;;;;;;10.27;2.20;;;1.70;99.90;;;;;;5075373;28;20558;-71
2022/01/20 08:39:45;;;;;;;15.80;5.37;;;1.70;99.90;;;;;;5076179;28;20772;-71
2022/01/20 08:42:12;;;;;;;18.47;2.43;;;1.60;99.90;;;;;;5079696;28;20490;-72
2022/01/20 08:44:42;;;;;;;7.33;1.80;;;1.60;99.90;;;;;;5080336;28;20819;-72
2022/01/20 08:47:17;;;;;;;7.83;2.57;;;1.60;99.90;;;;;;5079946;28;20517;-71
2022/01/20 08:49:44;;;;;;;12.50;2.70;;;1.60;99.90;;;;;;5079611;28;20465;-72
2022/01/20 08:52:10;;;;;;;6.03;2.20;;;1.60;99.90;;;;;;5080067;28;20851;-72
2022/01/20 08:54:37;;;;;;;10.40;3.07;;;1.70;99.90;;;;;;5079001;28;20566;-71
2022/01/20 08:57:05;;;;;;;5.80;3.20;;;1.80;99.90;;;;;;5079736;28;20450;-70
2022/01/20 08:59:32;;;;;;;7.40;1.77;;;1.80;99.90;;;;;;5080132;28;20458;-71
2022/01/20 09:02:08;;;;;;;10.20;2.57;;;1.90;99.90;;;;;;5080109;28;20514;-73
2022/01/20 09:04:41;;;;;;;6.33;2.50;;;2.00;99.90;;;;;;5079894;28;20469;-72
2022/01/20 09:07:08;;;;;;;7.87;3.27;;;2.10;99.90;;;;;;5080499;28;20450;-71
2022/01/20 09:09:41;;;;;;;6.50;1.63;;;2.10;99.90;;;;;;5080365;28;20522;-72
2022/01/20 09:15:27;;;;;;;7.17;2.00;;;2.20;99.90;;;;;;5080869;28;20821;-72
2022/01/20 09:18:11;;;;;;;7.27;2.33;;;2.40;99.90;;;;;;5039341;28;20746;-70
2022/01/20 09:20:46;;;;;;;9.93;2.47;;;2.40;99.90;;;;;;5038940;28;20456;-71
2022/01/20 09:23:13;;;;;;;6.53;1.60;;;2.30;99.90;;;;;;5058991;28;20509;-71
2022/01/20 09:25:44;;;;;;;17.83;2.30;;;2.30;99.90;;;;;;5080266;28;20469;-71
2022/01/20 09:28:11;;;;;;;9.60;3.23;;;2.30;99.90;;;;;;5080582;28;20443;-70
2022/01/20 09:30:40;;;;;;;11.03;2.00;;;2.30;99.90;;;;;;5080173;28;20454;-71
2022/01/20 09:33:13;;;;;;;9.60;2.40;;;2.30;99.90;;;;;;5080721;28;20552;-70
2022/01/20 09:35:43;;;;;;;8.97;2.60;;;2.30;99.90;;;;;;5080315;28;20495;-70
2022/01/20 09:38:11;;;;;;;10.50;2.43;;;2.40;99.90;;;;;;5080602;28;20464;-71
2022/01/20 09:40:39;;;;;;;12.37;2.40;;;2.40;99.90;;;;;;5084834;28;20468;-70
2022/01/20 09:43:06;;;;;;;13.07;2.50;;;2.40;99.90;;;;;;5087825;28;20478;-71
2022/01/20 09:45:35;;;;;;;11.60;2.57;;;2.40;99.90;;;;;;5087725;28;20540;-71
2022/01/20 09:48:02;;;;;;;13.13;2.60;;;2.50;99.90;;;;;;5086307;28;20478;-70
2022/01/20 09:50:31;;;;;;;5.80;2.00;;;2.40;99.90;;;;;;5086099;28;20469;-71
2022/01/20 09:53:01;;;;;;;11.97;2.40;;;2.40;99.90;;;;;;5086008;28;20767;-70
2022/01/20 09:55:35;;;;;;;7.13;2.17;;;2.40;99.90;;;;;;5084073;28;20549;-70
2022/01/20 09:58:02;;;;;;;4.57;2.07;;;2.40;99.90;;;;;;5081107;28;20438;-70
2022/01/20 10:00:29;;;;;;;4.73;2.30;;;2.50;99.90;;;;;;5079970;28;20922;-71
2022/01/20 10:03:00;;;;;;;9.53;3.03;;;2.40;99.90;;;;;;5079543;28;20478;-71
2022/01/20 10:05:33;;;;;;;13.20;2.37;;;2.40;99.90;;;;;;5079119;28;20448;-70
2022/01/20 10:08:11;;;;;;;13.80;2.60;;;2.50;99.90;;;;;;5078384;28;20443;-70
2022/01/20 10:10:49;;;;;;;5.93;2.50;;;2.60;99.90;;;;;;5078220;28;20454;-70
2022/01/20 10:13:18;;;;;;;7.50;2.77;;;2.50;99.90;;;;;;5078570;28;20450;-70
2022/01/20 10:15:55;;;;;;;11.03;2.87;;;2.60;99.90;;;;;;5077610;28;20458;-70
2022/01/20 10:18:22;;;;;;;11.97;2.07;;;2.70;99.90;;;;;;5077572;28;20795;-71
2022/01/20 10:20:55;;;;;;;18.37;3.03;;;2.70;99.90;;;;;;5077774;28;20466;-72
2022/01/20 10:23:35;;;;;;;17.03;3.10;;;2.70;99.90;;;;;;5078101;28;20962;-71
2022/01/20 10:26:10;;;;;;;11.00;2.20;;;2.70;99.90;;;;;;5079570;28;20529;-69
2022/01/20 10:28:55;;;;;;;10.13;2.30;;;2.70;99.90;;;;;;5078842;28;20461;-71
2022/01/20 10:34:36;;;;;;;11.33;2.60;;;2.80;99.90;;;;;;5026021;28;20731;-71
2022/01/20 10:37:06;;;;;;;11.93;2.47;;;2.90;99.90;;;;;;5077453;28;20462;-72
2022/01/20 10:39:37;;;;;;;6.60;2.53;;;3.00;99.90;;;;;;5076977;28;20801;-72
2022/01/20 10:42:06;;;;;;;8.93;2.57;;;2.90;99.90;;;;;;5076898;28;20439;-72
2022/01/20 10:44:44;;;;;;;9.87;2.30;;;2.80;99.90;;;;;;5076537;28;20518;-71
2022/01/20 10:47:13;;;;;;;9.67;2.77;;;2.80;99.90;;;;;;5076423;28;20458;-71
2022/01/20 10:49:39;;;;;;;9.50;2.43;;;2.90;99.90;;;;;;5077270;28;20446;-72
2022/01/20 10:52:09;;;;;;;5.83;2.57;;;2.80;99.90;;;;;;5076882;28;20466;-71
2022/01/20 10:54:39;;;;;;;6.30;2.43;;;2.80;99.90;;;;;;5076219;28;20455;-72
2022/01/20 10:57:08;;;;;;;18.13;2.90;;;2.80;99.90;;;;;;5076173;28;20770;-72
2022/01/20 10:59:46;;;;;;;12.73;2.40;;;2.80;99.90;;;;;;5075539;28;20545;-71
2022/01/20 11:02:13;;;;;;;9.53;2.70;;;2.90;99.90;;;;;;5074806;28;20443;-72
2022/01/20 11:04:40;;;;;;;6.43;2.27;;;2.80;99.90;;;;;;5075420;28;20778;-71
2022/01/20 11:07:09;;;;;;;9.33;2.50;;;2.90;99.90;;;;;;5075270;28;20579;-71
2022/01/20 11:09:41;;;;;;;10.30;3.00;;;2.90;99.90;;;;;;5075648;28;20458;-71
2022/01/20 11:12:10;;;;;;;10.47;2.93;;;3.00;99.90;;;;;;5075037;28;20901;-71
2022/01/20 11:14:37;;;;;;;11.87;2.57;;;3.10;99.90;;;;;;5074898;28;20458;-71
2022/01/20 11:17:04;;;;;;;7.90;2.33;;;3.10;99.90;;;;;;5075214;28;20458;-72
2022/01/20 11:19:36;;;;;;;9.13;3.27;;;3.10;99.90;;;;;;5074980;28;20473;-72
2022/01/20 11:22:08;;;;;;;15.73;2.97;;;3.10;99.90;;;;;;5075355;28;20572;-70
2022/01/20 11:24:37;;;;;;;10.83;2.40;;;3.10;99.90;;;;;;5075096;28;20755;-70
2022/01/20 11:27:07;;;;;;;4.40;1.73;;;3.10;99.90;;;;;;5075072;28;20520;-71
2022/01/20 11:29:43;;;;;;;9.23;2.50;;;3.00;99.90;;;;;;5075508;28;20508;-71
2022/01/20 11:32:23;;;;;;;8.23;2.77;;;3.10;99.90;;;;;;5076512;28;20808;-72
2022/01/20 11:35:01;;;;;;;9.70;2.80;;;3.20;99.90;;;;;;5077524;28;20918;-72
2022/01/20 11:37:34;;;;;;;20.43;3.03;;;3.20;99.90;;;;;;5076855;28;20438;-71
2022/01/20 11:40:17;;;;;;;9.90;2.70;;;3.30;99.90;;;;;;5075085;28;20449;-72
2022/01/20 11:42:55;;;;;;;9.73;3.30;;;3.40;99.90;;;;;;5075017;28;20477;-70
2022/01/20 11:45:24;;;;;;;13.57;2.70;;;3.50;99.90;;;;;;5075071;28;20447;-71
2022/01/20 11:47:50;;;;;;;9.47;2.23;;;3.60;99.90;;;;;;5074169;28;20490;-70
2022/01/20 11:50:18;;;;;;;11.80;2.80;;;3.60;99.90;;;;;;5074817;28;20534;-70
2022/01/20 11:52:46;;;;;;;20.07;3.03;;;3.60;99.90;;;;;;5074329;28;20482;-70
2022/01/20 11:55:16;;;;;;;16.47;2.97;;;3.70;99.90;;;;;;5074258;28;20486;-71
2022/01/20 11:57:43;;;;;;;11.07;2.60;;;3.70;99.90;;;;;;5074574;28;20473;-70
2022/01/20 12:00:26;;;;;;;10.57;2.90;;;3.70;99.90;;;;;;5075476;28;20821;-71
2022/01/20 12:02:53;;;;;;;7.30;2.30;;;3.80;99.90;;;;;;5079321;28;20527;-72
2022/01/20 12:05:26;;;;;;;10.13;2.50;;;3.80;99.90;;;;;;5078797;28;20572;-72
2022/01/20 12:08:03;;;;;;;5.47;2.27;;;3.70;99.90;;;;;;5078584;28;20911;-71
2022/01/20 12:10:36;;;;;;;8.90;2.37;;;3.70;99.90;;;;;;5077413;28;20457;-71
2022/01/20 12:13:11;;;;;;;8.07;2.43;;;3.70;99.90;;;;;;5079023;28;20907;-71
2022/01/20 12:15:48;;;;;;;11.13;2.17;;;3.80;99.90;;;;;;5074951;28;20839;-71
2022/01/20 12:18:15;;;;;;;7.47;2.20;;;3.90;99.90;;;;;;5074781;28;20497;-71
2022/01/20 12:20:42;;;;;;;9.00;2.20;;;4.50;99.90;;;;;;5074778;28;20849;-71
2022/01/20 12:23:09;;;;;;;6.07;2.03;;;4.60;99.90;;;;;;5075649;28;20474;-71
2022/01/20 12:25:37;;;;;;;3.77;1.60;;;5.00;99.90;;;;;;5075036;28;20453;-71
2022/01/20 12:28:08;;;;;;;6.93;2.80;;;5.30;99.90;;;;;;5074210;28;20567;-72
2022/01/20 12:30:36;;;;;;;9.87;2.07;;;5.30;99.90;;;;;;5074665;28;20454;-72
2022/01/20 12:33:07;;;;;;;5.50;2.00;;;5.30;99.90;;;;;;5074577;28;20860;-72
2022/01/20 12:35:40;;;;;;;7.63;1.87;;;5.70;99.90;;;;;;5075055;28;20767;-72
2022/01/20 12:38:18;;;;;;;7.37;2.10;;;6.10;99.90;;;;;;5074494;28;20827;-72
2022/01/20 12:40:58;;;;;;;7.70;1.90;;;6.50;99.90;;;;;;5074119;28;20460;-72
2022/01/20 12:43:40;;;;;;;10.80;2.43;;;7.10;99.90;;;;;;5074490;28;20614;-72
2022/01/20 12:46:09;;;;;;;6.83;2.17;;;7.30;99.90;;;;;;5074585;28;20469;-73
2022/01/20 12:48:37;;;;;;;6.57;1.73;;;7.10;99.90;;;;;;5074332;28;20580;-72
2022/01/20 12:51:07;;;;;;;4.30;1.77;;;7.00;99.90;;;;;;5074398;28;20767;-70
2022/01/20 12:53:36;;;;;;;8.60;2.60;;;6.90;99.90;;;;;;5074164;28;20434;-71
2022/01/20 12:56:05;;;;;;;6.67;1.53;;;6.90;99.90;;;;;;5074770;28;20454;-71
2022/01/20 12:58:32;;;;;;;7.70;2.30;;;6.20;99.90;;;;;;5074489;28;20458;-71
2022/01/20 13:01:01;;;;;;;10.77;2.20;;;6.30;99.90;;;;;;5074104;28;20492;-71
2022/01/20 13:03:39;;;;;;;9.37;2.37;;;6.60;99.90;;;;;;5074229;28;20799;-72
2022/01/20 13:06:09;;;;;;;5.87;1.70;;;6.50;99.90;;;;;;5075290;28;20771;-73
2022/01/20 13:08:39;;;;;;;4.60;1.53;;;6.80;99.90;;;;;;5075082;28;20902;-71
2022/01/20 13:11:14;;;;;;;6.03;1.70;;;7.00;99.90;;;;;;5074331;28;20438;-72
2022/01/20 13:13:40;;;;;;;8.97;2.20;;;7.20;99.90;;;;;;5073854;28;20473;-72
2022/01/20 13:16:12;;;;;;;5.80;1.60;;;7.20;99.90;;;;;;5074164;28;20485;-71
2022/01/20 13:18:39;;;;;;;8.90;2.00;;;7.40;99.90;;;;;;5075037;28;20749;-70
2022/01/20 13:21:08;;;;;;;4.20;1.73;;;7.00;99.90;;;;;;5074834;28;20450;-72
2022/01/20 13:23:57;;;;;;;5.00;2.00;;;7.00;99.90;;;;;;5074527;28;20497;-71
2022/01/20 13:26:27;;;;;;;6.57;2.63;;;7.30;99.90;;;;;;5076123;28;20534;-72
2022/01/20 13:29:01;;;;;;;7.17;1.90;;;6.80;99.90;;;;;;5077605;28;20476;-71
2022/01/20 13:31:28;;;;;;;3.57;1.53;;;6.90;99.90;;;;;;5077790;28;20522;-71
2022/01/20 13:33:55;;;;;;;9.37;2.60;;;6.70;99.90;;;;;;5077504;28;20911;-71
2022/01/20 13:36:22;;;;;;;4.67;2.10;;;6.20;99.90;;;;;;5077583;28;20450;-72
2022/01/20 13:38:56;;;;;;;10.63;2.23;;;5.80;99.90;;;;;;5077418;28;20507;-72
2022/01/20 13:41:29;;;;;;;10.33;2.07;;;5.20;99.90;;;;;;5078202;28;20446;-72
2022/01/20 13:46:45;;;;;;;10.63;2.77;;;4.50;99.90;;;;;;5078043;28;20487;-71
2022/01/20 13:49:13;;;;;;;9.77;2.50;;;4.30;99.90;;;;;;5079255;28;20478;-72
2022/01/20 13:51:41;;;;;;;7.60;2.13;;;4.00;99.90;;;;;;5079084;28;20458;-73